Terminal Aerodrome Forecast
Issued by NWS

Home | Current Version | Previous Version | Text Only | Print | Product List | Glossary Off
Versions: 1 2 3 4 5 6 7 8 9 10 11 12 13 14 15 16 17 18

000
FTUS43 KABR 201720
TAFMBG
TAF
KMBG 201720Z 2018/2118 VRB04KT P6SM OVC070
     FM202100 VRB04KT P6SM BKN050
     FM210000 02008KT P6SM OVC040
     FM210600 02012KT P6SM BKN060
     FM211700 05008KT P6SM BKN050=

USA.gov is the U.S. government's official web portal to all federal, state and local government web resources and services.